CPH9 weather

Fordwich Airport
Fordwich, Ontario, Canada

Public forecast

Using degrees Celsius for public forecast. Weather courtesy of forecast.io.

METAR (pilot weather report)

Closest report is Waterloo Airport, 37.1 nm (68.7 km) SE. Retrieved 2019/07/20 04:00 UTC (45 minutes ago):

CYKF 200400Z AUTO 00000KT 9SM CLR 24/23 A2986 RMK SLP106 DENSITY ALT 2300FT

TAF (pilot weather forecast)

Closest forecast is Waterloo Airport, 37.1 nm (68.7 km) SE. Retrieved 2019/07/20 02:42 UTC (2 hours ago):

TAF CYKF 200138Z 2002/2014 24008KT P6SM SCT080 BKN240 FM200700 22007KT P6SM SCT030 TEMPO 2007/2014 4SM BR BKN020 PROB30 2009/2013 11/2SM BR BKN006 BKN020 RMK FCST BASED ON AUTO OBS. NXT FCST BY 200800Z